Time;durP1;ratioP1;P1;durP2;ratioP2;P2;SDS_P1;SDS_P2;PMS_P1;PMS_P2;Temp;Humidity;BMP_temperature;BMP_pressure;BME280_temperature;BME280_humidity;BME280_pressure;Samples;Min_cycle;Max_cycle;Signal;HPM_P1;HPM_P2
2022/09/12 00:00:03;;;;;;;7.33;6.63;;;15.70;95.20;;;;;;921570;151;27347;-77
2022/09/12 00:02:30;;;;;;;8.23;6.80;;;15.70;95.30;;;;;;923691;151;27333;-77
2022/09/12 00:04:56;;;;;;;8.50;6.83;;;15.70;95.40;;;;;;922241;152;27447;-76
2022/09/12 00:07:23;;;;;;;9.53;7.53;;;15.70;95.50;;;;;;923281;151;27254;-77
2022/09/12 00:09:49;;;;;;;7.90;7.20;;;15.70;95.80;;;;;;921638;151;27363;-77
2022/09/12 00:12:16;;;;;;;7.50;6.80;;;15.70;96.00;;;;;;921876;151;27699;-76
2022/09/12 00:14:42;;;;;;;7.50;6.80;;;15.70;96.10;;;;;;922610;151;28232;-77
2022/09/12 00:17:09;;;;;;;7.10;6.40;;;15.70;96.10;;;;;;921968;151;27354;-77
2022/09/12 00:19:36;;;;;;;7.10;6.40;;;15.70;96.10;;;;;;921109;150;27362;-76
2022/09/12 00:22:02;;;;;;;7.77;7.00;;;15.70;96.00;;;;;;922993;151;27289;-77
2022/09/12 00:24:29;;;;;;;7.17;6.47;;;15.70;96.10;;;;;;922384;151;27338;-76
2022/09/12 00:26:55;;;;;;;7.13;6.13;;;15.60;96.00;;;;;;923171;151;27366;-76
2022/09/12 00:29:22;;;;;;;6.97;6.37;;;15.60;96.20;;;;;;920950;151;27357;-77
2022/09/12 00:31:49;;;;;;;7.33;5.93;;;15.60;96.10;;;;;;921498;151;27378;-76
2022/09/12 00:34:15;;;;;;;7.37;6.67;;;15.60;96.20;;;;;;920865;151;27309;-76
2022/09/12 00:36:42;;;;;;;6.80;6.20;;;15.60;96.10;;;;;;920345;151;27771;-76
2022/09/12 00:39:08;;;;;;;6.40;5.80;;;15.60;96.10;;;;;;923603;151;27310;-76
2022/09/12 00:41:35;;;;;;;6.20;5.70;;;15.50;96.00;;;;;;921983;151;27467;-76
2022/09/12 00:44:20;;;;;;;6.40;5.80;;;15.50;95.80;;;;;;922678;151;27422;-76
2022/09/12 00:46:49;;;;;;;7.13;6.10;;;15.40;96.20;;;;;;920634;152;27390;-77
2022/09/12 00:49:22;;;;;;;6.90;6.30;;;15.40;96.00;;;;;;915415;151;27397;-77
2022/09/12 00:51:49;;;;;;;6.10;5.60;;;15.30;96.10;;;;;;913885;152;27320;-78
2022/09/12 00:54:15;;;;;;;9.13;6.40;;;15.30;96.10;;;;;;915378;152;27290;-79
2022/09/12 00:56:42;;;;;;;6.63;6.03;;;15.30;96.30;;;;;;913761;152;27440;-78
2022/09/12 00:59:11;;;;;;;7.10;6.40;;;15.20;96.40;;;;;;911953;152;27383;-76
2022/09/12 01:01:37;;;;;;;7.20;6.50;;;15.20;96.40;;;;;;912417;152;27351;-76
2022/09/12 01:04:04;;;;;;;6.13;5.60;;;15.20;96.50;;;;;;914431;152;27312;-76
2022/09/12 01:06:31;;;;;;;7.40;6.70;;;15.10;96.50;;;;;;915547;149;27373;-77
2022/09/12 01:08:58;;;;;;;7.00;6.40;;;15.10;96.70;;;;;;912474;152;27453;-76
2022/09/12 01:11:24;;;;;;;7.13;6.43;;;15.10;96.80;;;;;;915598;152;27323;-76
2022/09/12 01:13:50;;;;;;;8.10;6.47;;;15.00;96.70;;;;;;915208;152;27273;-76
2022/09/12 01:16:17;;;;;;;6.83;6.13;;;15.00;96.90;;;;;;915311;152;27324;-76
2022/09/12 01:18:44;;;;;;;8.17;6.57;;;15.00;96.90;;;;;;915317;152;27311;-76
2022/09/12 01:21:44;;;;;;;6.80;6.17;;;15.00;96.90;;;;;;914672;152;27446;-76
2022/09/12 01:24:19;;;;;;;6.40;5.90;;;14.90;97.00;;;;;;915461;152;27384;-76
2022/09/12 01:27:10;;;;;;;6.03;5.43;;;14.90;96.80;;;;;;913855;152;27371;-76
2022/09/12 01:29:55;;;;;;;7.03;6.33;;;14.90;96.90;;;;;;908527;152;27277;-76
2022/09/12 01:32:30;;;;;;;5.83;5.23;;;14.80;96.80;;;;;;914660;152;27332;-76
2022/09/12 01:35:09;;;;;;;6.27;5.67;;;14.70;96.70;;;;;;913278;152;27285;-76
2022/09/12 01:37:48;;;;;;;6.03;5.43;;;14.70;96.80;;;;;;912073;152;27375;-75
2022/09/12 01:40:15;;;;;;;7.37;6.47;;;14.60;96.80;;;;;;911569;152;27433;-76
2022/09/12 01:42:40;;;;;;;6.30;5.73;;;14.60;96.90;;;;;;912032;152;27413;-76
2022/09/12 01:45:25;;;;;;;7.23;6.53;;;14.60;97.20;;;;;;912617;152;27303;-76
2022/09/12 01:48:00;;;;;;;9.87;6.60;;;14.50;97.30;;;;;;897559;152;27335;-76
2022/09/12 01:50:27;;;;;;;6.23;5.63;;;14.50;97.40;;;;;;913251;152;27458;-76
2022/09/12 01:52:59;;;;;;;8.20;7.40;;;14.50;97.70;;;;;;913007;152;27344;-77
2022/09/12 01:55:34;;;;;;;8.07;7.27;;;14.40;98.10;;;;;;913715;152;27421;-77
2022/09/12 01:58:23;;;;;;;9.33;7.10;;;14.50;98.40;;;;;;913441;152;27294;-77
2022/09/12 02:00:55;;;;;;;8.70;6.70;;;14.50;98.60;;;;;;916436;152;27288;-77
2022/09/12 02:03:25;;;;;;;7.93;7.13;;;14.50;98.70;;;;;;915069;152;27380;-76
2022/09/12 02:05:57;;;;;;;6.87;6.27;;;14.40;98.90;;;;;;913958;152;27326;-76
2022/09/12 02:08:26;;;;;;;7.30;6.10;;;14.50;98.80;;;;;;915616;152;27319;-76
2022/09/12 02:10:56;;;;;;;6.47;5.93;;;14.50;99.20;;;;;;911653;152;27331;-76
2022/09/12 02:13:25;;;;;;;7.37;6.57;;;14.50;99.30;;;;;;913940;152;27460;-76
2022/09/12 02:15:52;;;;;;;7.67;6.80;;;14.50;99.30;;;;;;914500;152;27371;-76
2022/09/12 02:18:18;;;;;;;6.77;6.10;;;14.50;99.40;;;;;;915080;152;27288;-76
2022/09/12 02:20:45;;;;;;;7.00;6.40;;;14.50;99.50;;;;;;914787;152;27406;-76
2022/09/12 02:23:18;;;;;;;8.17;6.30;;;14.50;99.70;;;;;;914702;152;27289;-76
2022/09/12 02:25:44;;;;;;;7.53;6.57;;;14.50;99.70;;;;;;916136;152;27514;-76
2022/09/12 02:28:13;;;;;;;6.20;5.67;;;14.60;99.80;;;;;;913785;152;27320;-76
2022/09/12 02:31:10;;;;;;;6.70;6.10;;;14.60;99.80;;;;;;914067;152;27273;-76
2022/09/12 02:33:55;;;;;;;5.70;5.20;;;14.60;99.90;;;;;;912966;152;27544;-77
2022/09/12 02:36:34;;;;;;;6.73;6.13;;;14.60;99.50;;;;;;913926;152;27400;-76
2022/09/12 02:39:01;;;;;;;7.33;5.77;;;14.60;99.40;;;;;;912532;152;27886;-76
2022/09/12 02:41:27;;;;;;;6.17;5.63;;;14.50;99.30;;;;;;913782;152;27351;-76
2022/09/12 02:43:54;;;;;;;6.17;5.63;;;14.50;99.30;;;;;;913488;152;27493;-76
2022/09/12 02:46:32;;;;;;;6.27;5.67;;;14.50;99.40;;;;;;913452;152;27314;-76
2022/09/12 02:48:59;;;;;;;6.87;6.27;;;14.50;99.40;;;;;;913697;152;27403;-76
2022/09/12 02:51:26;;;;;;;11.83;6.40;;;14.50;99.40;;;;;;913439;152;27759;-76
2022/09/12 02:53:52;;;;;;;6.83;6.23;;;14.40;99.50;;;;;;913026;152;27347;-77
2022/09/12 02:56:24;;;;;;;6.20;5.70;;;14.40;99.60;;;;;;915446;152;27515;-76
2022/09/12 02:58:51;;;;;;;6.93;6.23;;;14.40;99.60;;;;;;912353;152;27432;-77
2022/09/12 03:01:35;;;;;;;6.77;6.17;;;14.40;99.60;;;;;;913619;152;27421;-77
2022/09/12 03:04:08;;;;;;;7.40;6.60;;;14.40;99.60;;;;;;909702;152;27440;-77
2022/09/12 03:06:35;;;;;;;8.20;6.17;;;14.30;99.60;;;;;;913002;152;27363;-77
2022/09/12 03:09:10;;;;;;;8.07;6.60;;;14.30;99.70;;;;;;915293;152;27400;-77
2022/09/12 03:11:42;;;;;;;5.70;5.10;;;14.30;99.70;;;;;;914978;152;27323;-76
2022/09/12 03:14:36;;;;;;;6.60;5.93;;;14.30;99.70;;;;;;910413;155;27738;-77
2022/09/12 03:17:08;;;;;;;7.43;6.57;;;14.20;99.70;;;;;;914461;152;27679;-77
2022/09/12 03:19:56;;;;;;;6.67;5.63;;;14.20;99.60;;;;;;913447;152;27367;-77
2022/09/12 03:22:35;;;;;;;6.07;5.50;;;14.20;99.70;;;;;;875748;156;27778;-79
2022/09/12 03:25:19;;;;;;;6.50;5.77;;;14.20;99.70;;;;;;920379;153;27263;-78
2022/09/12 03:27:46;;;;;;;7.47;6.67;;;14.10;99.80;;;;;;911087;154;27300;-78
2022/09/12 03:30:13;;;;;;;12.20;5.90;;;14.10;99.80;;;;;;915474;150;27466;-77
2022/09/12 03:32:39;;;;;;;6.87;6.17;;;14.10;99.90;;;;;;907029;156;27393;-77
2022/09/12 03:35:06;;;;;;;7.27;6.17;;;14.00;99.90;;;;;;907212;156;27396;-77
2022/09/12 03:37:32;;;;;;;7.77;6.70;;;14.00;99.90;;;;;;909643;155;27270;-77
2022/09/12 03:39:59;;;;;;;7.23;6.07;;;14.00;99.90;;;;;;910230;155;27524;-77
2022/09/12 03:42:25;;;;;;;7.83;7.03;;;14.00;99.90;;;;;;912017;155;27414;-77
2022/09/12 03:44:52;;;;;;;6.60;6.00;;;14.00;99.90;;;;;;910071;156;27373;-77
2022/09/12 03:47:19;;;;;;;8.40;6.50;;;14.00;99.90;;;;;;907988;156;27386;-77
2022/09/12 03:49:45;;;;;;;6.60;6.00;;;14.00;99.90;;;;;;912306;154;27392;-77
2022/09/12 03:52:12;;;;;;;7.07;6.37;;;14.00;99.90;;;;;;915618;154;27462;-77
2022/09/12 03:54:38;;;;;;;6.83;6.20;;;14.00;99.90;;;;;;918013;154;27276;-77
2022/09/12 03:57:05;;;;;;;7.40;6.70;;;14.00;99.90;;;;;;917076;154;27309;-77
2022/09/12 03:59:32;;;;;;;7.43;6.67;;;14.00;99.90;;;;;;917974;154;27379;-77
2022/09/12 04:01:58;;;;;;;7.23;6.53;;;14.00;99.90;;;;;;918073;154;27381;-77
2022/09/12 04:04:25;;;;;;;7.53;6.80;;;14.00;99.90;;;;;;917056;154;27369;-77
2022/09/12 04:06:51;;;;;;;7.10;6.40;;;14.00;99.90;;;;;;918345;154;27397;-77
2022/09/12 04:09:18;;;;;;;8.77;7.27;;;14.00;99.90;;;;;;918815;154;27343;-77
2022/09/12 04:11:44;;;;;;;8.47;6.43;;;14.00;99.90;;;;;;916745;154;27474;-77
2022/09/12 04:14:11;;;;;;;7.93;7.13;;;14.00;99.90;;;;;;916826;154;27482;-77
2022/09/12 04:16:38;;;;;;;8.33;6.33;;;13.90;99.90;;;;;;916984;152;27856;-77
2022/09/12 04:19:04;;;;;;;8.93;7.30;;;13.90;99.90;;;;;;919075;152;27430;-77
2022/09/12 04:21:31;;;;;;;6.83;6.20;;;13.90;99.90;;;;;;918558;154;27377;-77
2022/09/12 04:23:57;;;;;;;7.83;7.13;;;13.90;99.90;;;;;;918297;154;27446;-77
2022/09/12 04:26:24;;;;;;;8.30;6.93;;;13.90;99.90;;;;;;916698;154;27363;-77
2022/09/12 04:28:52;;;;;;;7.10;6.40;;;13.90;99.90;;;;;;916905;154;27357;-77
2022/09/12 04:31:19;;;;;;;10.37;6.53;;;13.90;99.90;;;;;;916337;154;27359;-79
2022/09/12 04:33:44;;;;;;;7.20;6.50;;;13.90;99.90;;;;;;916689;154;27296;-79
2022/09/12 04:36:10;;;;;;;6.27;5.67;;;13.90;99.90;;;;;;917108;154;27664;-79
2022/09/12 04:38:37;;;;;;;8.03;6.70;;;13.90;99.90;;;;;;917343;152;27459;-79
2022/09/12 04:41:10;;;;;;;7.47;6.70;;;13.90;99.90;;;;;;916986;154;27371;-79
2022/09/12 04:43:36;;;;;;;7.10;6.40;;;13.90;99.90;;;;;;917503;152;27499;-79
2022/09/12 04:46:06;;;;;;;8.13;6.20;;;14.00;99.90;;;;;;917956;154;27318;-79
2022/09/12 04:48:33;;;;;;;10.83;6.37;;;14.00;99.90;;;;;;916358;154;27436;-77
2022/09/12 04:51:12;;;;;;;7.67;6.90;;;14.00;99.90;;;;;;917245;154;27452;-78
2022/09/12 04:53:38;;;;;;;7.37;6.40;;;14.00;99.90;;;;;;918046;152;27396;-78
2022/09/12 04:56:05;;;;;;;7.33;6.63;;;14.00;99.90;;;;;;917388;153;27371;-78
2022/09/12 04:58:32;;;;;;;6.30;5.70;;;14.00;99.90;;;;;;918009;154;27344;-78
2022/09/12 05:01:06;;;;;;;7.13;6.53;;;14.00;99.90;;;;;;917595;152;27489;-78
2022/09/12 05:03:33;;;;;;;6.80;6.20;;;14.00;99.90;;;;;;919064;154;27379;-78
2022/09/12 05:06:02;;;;;;;6.87;6.27;;;14.00;99.90;;;;;;915746;154;27490;-78
2022/09/12 05:08:29;;;;;;;6.27;5.73;;;13.90;99.90;;;;;;918333;154;27326;-78
2022/09/12 05:10:56;;;;;;;6.97;6.37;;;13.90;99.90;;;;;;917625;154;27361;-77
2022/09/12 05:13:22;;;;;;;6.63;5.97;;;13.90;99.90;;;;;;918138;154;27366;-77
2022/09/12 05:15:54;;;;;;;7.03;6.13;;;13.90;99.90;;;;;;916606;153;27392;-77
2022/09/12 05:18:21;;;;;;;7.47;6.13;;;13.90;99.90;;;;;;918054;152;27447;-77
2022/09/12 05:20:47;;;;;;;8.77;6.30;;;13.90;99.90;;;;;;917974;154;27420;-77
2022/09/12 05:23:14;;;;;;;7.50;6.77;;;14.00;99.90;;;;;;917916;152;27345;-77
2022/09/12 05:25:40;;;;;;;8.27;6.43;;;14.00;99.90;;;;;;916367;154;27338;-77
2022/09/12 05:28:07;;;;;;;6.97;6.13;;;14.10;99.90;;;;;;915857;154;27370;-77
2022/09/12 05:30:34;;;;;;;8.03;6.47;;;14.20;99.90;;;;;;917894;152;27477;-77
2022/09/12 05:33:00;;;;;;;6.47;5.90;;;14.30;99.90;;;;;;915517;154;27345;-77
2022/09/12 05:35:27;;;;;;;7.03;6.37;;;14.50;99.90;;;;;;916272;154;27341;-77
2022/09/12 05:37:53;;;;;;;7.20;6.60;;;14.80;99.90;;;;;;917255;152;27293;-77
2022/09/12 05:40:20;;;;;;;7.47;6.73;;;15.10;99.90;;;;;;917634;154;27556;-77
2022/09/12 05:42:47;;;;;;;8.90;6.37;;;15.40;99.90;;;;;;918809;154;27396;-78
2022/09/12 05:45:13;;;;;;;6.93;6.33;;;15.80;99.90;;;;;;917857;154;27368;-78
2022/09/12 05:47:40;;;;;;;7.05;5.83;;;16.20;99.90;;;;;;916765;152;27379;-77
2022/09/12 05:50:09;;;;;;;6.30;5.80;;;16.60;99.90;;;;;;919452;154;27446;-78
2022/09/12 05:52:33;;;;;;;6.40;5.87;;;17.00;99.90;;;;;;916998;152;27443;-78
2022/09/12 05:55:00;;;;;;;6.47;5.92;;;17.50;99.90;;;;;;918152;152;27378;-78
2022/09/12 05:57:26;;;;;;;6.22;5.62;;;17.90;99.90;;;;;;916624;154;27315;-78
2022/09/12 05:59:53;;;;;;;6.10;5.60;;;18.40;99.90;;;;;;915796;152;27439;-78
2022/09/12 06:02:19;;;;;;;5.78;5.28;;;18.90;99.90;;;;;;919693;154;27441;-77
2022/09/12 06:04:46;;;;;;;6.35;5.75;;;19.40;99.90;;;;;;917323;154;27310;-78
2022/09/12 06:07:13;;;;;;;6.58;5.10;;;19.80;99.90;;;;;;916948;154;27466;-78
2022/09/12 06:09:39;;;;;;;5.97;5.42;;;20.30;99.90;;;;;;918678;152;27376;-78
2022/09/12 06:12:07;;;;;;;5.80;5.17;;;20.70;99.90;;;;;;915205;152;27403;-77
2022/09/12 06:14:32;;;;;;;4.97;4.60;;;21.10;99.30;;;;;;917727;154;27424;-78
2022/09/12 06:16:59;;;;;;;5.45;5.00;;;21.60;98.20;;;;;;916135;152;27897;-78
2022/09/12 06:19:26;;;;;;;4.83;4.53;;;22.00;97.00;;;;;;916572;152;27477;-78
2022/09/12 06:21:52;;;;;;;4.80;4.40;;;22.50;95.70;;;;;;918230;154;27434;-78
2022/09/12 06:24:19;;;;;;;5.20;4.20;;;23.00;94.20;;;;;;918881;154;27308;-78
2022/09/12 06:26:46;;;;;;;4.40;4.10;;;23.50;93.30;;;;;;915156;154;27436;-78
2022/09/12 06:29:12;;;;;;;4.17;3.87;;;24.00;92.00;;;;;;918522;152;27478;-78
2022/09/12 06:31:39;;;;;;;4.10;3.80;;;24.50;90.20;;;;;;916955;154;27382;-78
2022/09/12 06:34:05;;;;;;;3.83;3.55;;;24.90;87.40;;;;;;915269;154;27463;-78
2022/09/12 06:36:40;;;;;;;4.40;4.10;;;25.40;85.00;;;;;;917306;154;27418;-78
2022/09/12 06:39:07;;;;;;;4.58;4.17;;;25.90;82.60;;;;;;917777;154;27341;-77
2022/09/12 06:41:33;;;;;;;4.00;3.67;;;26.30;80.60;;;;;;917168;152;28051;-77
2022/09/12 06:44:00;;;;;;;4.75;4.35;;;26.80;78.80;;;;;;917656;152;27436;-77
2022/09/12 06:46:27;;;;;;;4.50;4.20;;;27.20;76.20;;;;;;917930;154;27460;-77
2022/09/12 06:48:53;;;;;;;4.35;4.05;;;27.60;73.80;;;;;;917337;154;27381;-78
2022/09/12 06:51:20;;;;;;;4.72;4.40;;;28.00;72.60;;;;;;915919;152;27407;-77
2022/09/12 06:53:46;;;;;;;4.90;4.30;;;28.30;71.30;;;;;;911042;153;27396;-77
2022/09/12 06:56:16;;;;;;;5.15;4.75;;;28.70;69.90;;;;;;910995;156;27307;-77
2022/09/12 06:58:42;;;;;;;4.83;4.28;;;29.00;68.30;;;;;;909901;156;27446;-77
2022/09/12 07:01:09;;;;;;;4.22;3.85;;;29.40;68.00;;;;;;908556;156;27983;-78
2022/09/12 07:03:36;;;;;;;4.40;3.67;;;29.80;67.20;;;;;;908739;156;27317;-78
2022/09/12 07:06:05;;;;;;;3.72;3.47;;;30.10;66.50;;;;;;909038;155;27363;-78
2022/09/12 07:08:32;;;;;;;4.30;4.00;;;30.50;65.30;;;;;;909162;156;27465;-77
2022/09/12 07:10:58;;;;;;;4.15;3.75;;;30.90;64.10;;;;;;909061;156;27274;-77
2022/09/12 07:13:25;;;;;;;4.42;4.03;;;31.30;62.90;;;;;;908814;156;27359;-77
2022/09/12 07:15:51;;;;;;;3.30;3.10;;;31.70;62.10;;;;;;912020;155;27386;-77
2022/09/12 07:18:18;;;;;;;3.83;3.50;;;32.20;61.20;;;;;;910184;153;27371;-77
2022/09/12 07:20:44;;;;;;;3.87;3.58;;;32.60;60.20;;;;;;911538;155;27398;-77
2022/09/12 07:23:11;;;;;;;3.75;3.55;;;32.90;59.10;;;;;;910443;156;27381;-77
2022/09/12 07:25:38;;;;;;;3.55;3.35;;;33.30;58.60;;;;;;911060;153;27327;-77
2022/09/12 07:28:04;;;;;;;4.22;3.92;;;33.70;58.00;;;;;;911116;156;27356;-78
2022/09/12 07:30:31;;;;;;;3.65;3.35;;;34.10;57.10;;;;;;910510;155;27480;-77
2022/09/12 07:32:57;;;;;;;3.17;2.98;;;34.50;56.10;;;;;;909914;155;27406;-78
2022/09/12 07:35:24;;;;;;;3.42;3.05;;;34.80;55.20;;;;;;910838;153;27431;-77
2022/09/12 07:37:51;;;;;;;3.58;3.27;;;35.10;54.60;;;;;;908391;153;26221;-78
2022/09/12 07:40:17;;;;;;;4.20;3.42;;;35.40;54.00;;;;;;908810;153;27345;-78
2022/09/12 07:42:44;;;;;;;3.47;3.17;;;35.70;53.30;;;;;;908371;156;26237;-78
2022/09/12 07:45:11;;;;;;;3.30;3.10;;;36.00;52.90;;;;;;910967;155;27422;-78
2022/09/12 07:47:37;;;;;;;3.22;3.02;;;36.20;52.60;;;;;;908193;155;26307;-78
2022/09/12 07:50:04;;;;;;;3.45;3.17;;;36.50;51.90;;;;;;911889;156;27408;-78
2022/09/12 07:52:30;;;;;;;3.37;3.08;;;36.70;50.70;;;;;;912942;153;26284;-78
2022/09/12 07:54:57;;;;;;;3.30;3.00;;;36.90;50.80;;;;;;919667;154;26221;-78
2022/09/12 07:57:24;;;;;;;6.08;3.50;;;37.10;50.20;;;;;;917254;153;26269;-78
2022/09/12 07:59:50;;;;;;;3.47;3.02;;;37.30;49.60;;;;;;916043;154;26270;-78
2022/09/12 08:02:16;;;;;;;3.20;3.00;;;37.50;49.30;;;;;;917167;152;26319;-78
2022/09/12 08:04:43;;;;;;;4.55;3.00;;;37.70;49.00;;;;;;916041;154;26255;-78
2022/09/12 08:07:10;;;;;;;3.55;2.83;;;37.90;48.90;;;;;;919605;152;26271;-82
2022/09/12 08:09:36;;;;;;;3.10;2.90;;;38.10;48.40;;;;;;917033;154;26289;-82
2022/09/12 08:12:03;;;;;;;2.62;2.47;;;38.40;48.00;;;;;;917199;154;26276;-81
2022/09/12 08:14:29;;;;;;;3.00;2.70;;;38.60;47.10;;;;;;918123;152;26289;-82
2022/09/12 08:16:56;;;;;;;2.72;2.52;;;38.70;46.40;;;;;;917818;152;26212;-81
2022/09/12 08:19:23;;;;;;;3.00;2.80;;;38.80;46.10;;;;;;916676;154;26356;-82
2022/09/12 08:21:49;;;;;;;2.98;2.70;;;39.00;45.80;;;;;;917874;154;26291;-82
2022/09/12 08:24:16;;;;;;;2.30;2.15;;;39.10;45.50;;;;;;918186;154;26324;-82
2022/09/12 08:26:42;;;;;;;2.42;2.33;;;39.20;45.30;;;;;;916430;153;26388;-81
2022/09/12 08:29:09;;;;;;;2.22;2.12;;;39.40;44.50;;;;;;917494;152;26255;-82
2022/09/12 08:31:36;;;;;;;2.70;2.50;;;39.50;44.60;;;;;;918473;152;26263;-81
2022/09/12 08:34:02;;;;;;;2.30;2.17;;;39.70;44.10;;;;;;916684;154;26216;-82
2022/09/12 08:36:29;;;;;;;2.55;2.17;;;39.90;44.00;;;;;;915725;154;26259;-82
2022/09/12 08:38:56;;;;;;;2.52;2.35;;;40.10;43.60;;;;;;916155;154;26303;-82
2022/09/12 08:41:37;;;;;;;2.58;2.37;;;40.30;43.30;;;;;;915160;154;26396;-82
2022/09/12 08:44:08;;;;;;;2.52;2.22;;;40.50;43.00;;;;;;917633;154;26319;-81
2022/09/12 08:47:01;;;;;;;2.62;2.05;;;40.70;42.70;;;;;;916605;154;26351;-82
2022/09/12 08:49:40;;;;;;;3.35;2.22;;;40.90;42.20;;;;;;916719;154;26259;-81
2022/09/12 08:52:07;;;;;;;2.15;2.05;;;40.90;41.90;;;;;;916044;154;26195;-82
2022/09/12 08:54:33;;;;;;;2.37;2.27;;;41.00;41.20;;;;;;909286;154;26283;-81
2022/09/12 08:57:03;;;;;;;2.40;2.20;;;41.00;40.40;;;;;;909605;156;26378;-81
2022/09/12 08:59:32;;;;;;;2.22;2.10;;;41.00;40.00;;;;;;908427;156;27773;-81
2022/09/12 09:01:58;;;;;;;2.77;2.42;;;40.90;39.60;;;;;;908736;156;26184;-81
2022/09/12 09:04:37;;;;;;;2.08;1.98;;;40.80;39.60;;;;;;911046;156;26334;-82
2022/09/12 09:07:19;;;;;;;2.20;2.10;;;40.70;39.50;;;;;;906560;156;26269;-82
2022/09/12 09:09:48;;;;;;;3.08;2.47;;;40.50;39.30;;;;;;908468;156;26402;-82
2022/09/12 09:12:21;;;;;;;2.10;1.98;;;40.30;39.00;;;;;;908816;154;28572;-81
2022/09/12 09:15:25;;;;;;;2.60;2.40;;;40.10;38.90;;;;;;908509;153;26234;-82
2022/09/12 09:17:51;;;;;;;1.92;1.82;;;39.80;38.80;;;;;;908330;156;26357;-81
2022/09/12 09:20:42;;;;;;;2.50;1.85;;;39.50;39.00;;;;;;910019;155;27316;-82
2022/09/12 09:23:33;;;;;;;2.40;2.20;;;39.20;38.80;;;;;;907687;155;26277;-82
2022/09/12 09:26:00;;;;;;;2.52;2.30;;;39.00;38.60;;;;;;908602;156;26257;-81
2022/09/12 09:28:26;;;;;;;1.98;1.87;;;38.70;38.60;;;;;;909767;155;26355;-81
2022/09/12 09:30:53;;;;;;;2.65;2.27;;;38.50;38.70;;;;;;910849;156;26352;-83
2022/09/12 09:33:22;;;;;;;3.42;2.40;;;38.20;38.80;;;;;;910164;156;26287;-81
2022/09/12 09:36:07;;;;;;;2.75;2.55;;;37.90;38.80;;;;;;911228;153;26232;-81
2022/09/12 09:38:40;;;;;;;2.83;2.62;;;37.70;38.90;;;;;;908818;155;26272;-82
2022/09/12 09:41:21;;;;;;;2.65;2.45;;;37.40;38.80;;;;;;909077;156;26351;-81
2022/09/12 09:43:48;;;;;;;2.70;2.50;;;37.20;39.10;;;;;;910959;156;26263;-81
2022/09/12 09:46:15;;;;;;;3.50;3.20;;;36.90;39.30;;;;;;909509;156;26312;-82
2022/09/12 09:48:41;;;;;;;2.98;2.67;;;36.70;39.10;;;;;;908039;156;26296;-81
2022/09/12 09:51:08;;;;;;;2.70;2.50;;;36.40;39.20;;;;;;908904;153;26237;-81
2022/09/12 09:53:37;;;;;;;3.02;2.77;;;36.30;39.30;;;;;;908881;156;26246;-81
2022/09/12 09:56:06;;;;;;;2.83;2.62;;;36.10;39.40;;;;;;911180;156;27365;-82
2022/09/12 09:58:33;;;;;;;3.10;2.90;;;35.90;39.60;;;;;;908546;156;27836;-81
2022/09/12 10:00:59;;;;;;;2.98;2.77;;;35.70;39.30;;;;;;910132;156;26310;-82
2022/09/12 10:03:32;;;;;;;2.67;2.47;;;35.50;39.10;;;;;;907867;156;27966;-81
2022/09/12 10:06:01;;;;;;;2.58;2.40;;;35.30;38.80;;;;;;909912;155;27296;-82
2022/09/12 10:08:27;;;;;;;3.17;2.37;;;35.00;38.90;;;;;;910615;155;27406;-81
2022/09/12 10:11:12;;;;;;;2.67;2.40;;;34.60;39.10;;;;;;910320;156;27333;-81
2022/09/12 10:13:41;;;;;;;2.92;2.62;;;34.40;39.20;;;;;;910875;153;27290;-81
2022/09/12 10:16:20;;;;;;;2.70;2.40;;;34.10;39.60;;;;;;907362;155;27366;-79
2022/09/12 10:18:46;;;;;;;2.50;2.30;;;33.70;39.90;;;;;;908955;155;27403;-79
2022/09/12 10:21:22;;;;;;;2.95;2.70;;;33.50;40.30;;;;;;910551;156;27364;-80
2022/09/12 10:23:48;;;;;;;2.37;2.17;;;33.30;40.40;;;;;;911623;153;27744;-80
2022/09/12 10:26:15;;;;;;;2.37;2.27;;;33.10;40.50;;;;;;909922;153;27347;-80
2022/09/12 10:28:47;;;;;;;2.50;2.30;;;32.90;40.60;;;;;;911043;153;27413;-79
2022/09/12 10:31:14;;;;;;;2.98;2.47;;;32.70;40.90;;;;;;908415;153;27359;-79
2022/09/12 10:33:40;;;;;;;2.60;2.40;;;32.50;41.10;;;;;;910755;153;27388;-79
2022/09/12 10:36:07;;;;;;;2.60;2.40;;;32.40;41.50;;;;;;910815;153;27443;-80
2022/09/12 10:38:34;;;;;;;2.62;2.42;;;32.30;41.60;;;;;;909250;152;27375;-80
2022/09/12 10:41:00;;;;;;;2.98;2.77;;;32.20;41.80;;;;;;910035;156;27507;-81
2022/09/12 10:43:27;;;;;;;2.42;2.33;;;32.10;42.00;;;;;;908365;156;27504;-79
2022/09/12 10:45:56;;;;;;;2.55;2.42;;;31.90;42.00;;;;;;909774;156;27461;-79
2022/09/12 10:48:31;;;;;;;2.83;2.62;;;31.80;42.10;;;;;;910019;156;27353;-79
2022/09/12 10:51:01;;;;;;;2.98;2.77;;;31.70;42.30;;;;;;909191;153;27347;-79
2022/09/12 10:53:42;;;;;;;2.77;2.60;;;31.60;42.30;;;;;;909207;155;27458;-78
2022/09/12 10:56:18;;;;;;;2.70;2.50;;;31.50;42.00;;;;;;916121;154;27483;-81
2022/09/12 10:58:44;;;;;;;2.92;2.72;;;31.40;42.20;;;;;;916169;152;27310;-79
2022/09/12 11:01:35;;;;;;;2.98;2.77;;;31.20;42.50;;;;;;915405;154;27421;-80
2022/09/12 11:04:07;;;;;;;2.95;2.75;;;31.10;42.60;;;;;;915443;154;27359;-81
2022/09/12 11:06:34;;;;;;;2.87;2.67;;;31.00;42.90;;;;;;918234;152;27854;-78
2022/09/12 11:09:09;;;;;;;3.08;2.45;;;30.90;43.10;;;;;;917228;154;27320;-78
2022/09/12 11:11:42;;;;;;;2.77;2.58;;;30.80;43.30;;;;;;916666;152;27320;-80
2022/09/12 11:14:14;;;;;;;3.15;2.85;;;30.80;43.20;;;;;;914696;152;27374;-79
2022/09/12 11:16:50;;;;;;;3.42;2.83;;;30.70;43.20;;;;;;917311;154;27422;-78
2022/09/12 11:19:41;;;;;;;3.20;2.85;;;30.70;43.30;;;;;;915591;152;27350;-79
2022/09/12 11:22:19;;;;;;;2.60;2.40;;;30.70;43.50;;;;;;916411;154;27332;-79
2022/09/12 11:25:10;;;;;;;2.98;2.77;;;30.70;43.50;;;;;;917894;154;27480;-79
2022/09/12 11:27:49;;;;;;;3.02;2.83;;;30.70;43.50;;;;;;916585;154;27434;-79
2022/09/12 11:30:15;;;;;;;2.90;2.70;;;30.70;43.90;;;;;;918435;154;27393;-79
2022/09/12 11:32:51;;;;;;;3.02;2.62;;;30.80;43.90;;;;;;925520;153;27445;-79
2022/09/12 11:35:29;;;;;;;2.90;2.70;;;30.80;44.10;;;;;;925258;153;27328;-79
2022/09/12 11:38:10;;;;;;;3.00;2.80;;;30.80;43.30;;;;;;922476;153;27325;-79
2022/09/12 11:40:40;;;;;;;3.27;2.98;;;30.80;43.00;;;;;;923955;153;27379;-81
2022/09/12 11:43:15;;;;;;;2.58;2.37;;;30.70;42.90;;;;;;923206;151;28217;-79
2022/09/12 11:45:42;;;;;;;3.08;2.87;;;30.70;43.00;;;;;;924262;153;27425;-79
2022/09/12 11:48:08;;;;;;;2.72;2.60;;;30.60;43.10;;;;;;924985;153;27343;-78
2022/09/12 11:50:35;;;;;;;2.90;2.70;;;30.60;43.00;;;;;;923944;153;27431;-80
2022/09/12 11:53:14;;;;;;;2.67;2.50;;;30.50;43.00;;;;;;926397;153;27485;-81
2022/09/12 11:56:04;;;;;;;2.95;2.75;;;30.60;43.20;;;;;;924168;153;27499;-79
2022/09/12 11:58:31;;;;;;;2.17;2.08;;;30.60;43.20;;;;;;923890;153;27320;-79
2022/09/12 12:01:03;;;;;;;2.80;2.60;;;30.60;42.80;;;;;;926112;153;27275;-78
2022/09/12 12:03:33;;;;;;;2.55;2.40;;;30.70;42.50;;;;;;923764;153;27356;-80
2022/09/12 12:05:59;;;;;;;2.72;2.52;;;30.70;42.40;;;;;;923488;153;27930;-78
2022/09/12 12:08:26;;;;;;;2.45;2.35;;;30.60;42.30;;;;;;924148;153;27405;-79
2022/09/12 12:10:58;;;;;;;3.00;2.80;;;30.60;42.20;;;;;;925194;153;27298;-79
2022/09/12 12:13:39;;;;;;;2.67;2.47;;;30.60;42.10;;;;;;924948;153;27690;-80
2022/09/12 12:16:06;;;;;;;2.47;2.27;;;30.50;41.90;;;;;;923652;153;27451;-78
2022/09/12 12:18:33;;;;;;;2.50;2.40;;;30.50;41.80;;;;;;926773;150;27879;-80
2022/09/12 12:21:20;;;;;;;2.27;2.17;;;30.40;41.70;;;;;;924542;150;27724;-79
2022/09/12 12:24:03;;;;;;;2.40;2.30;;;30.30;41.60;;;;;;923449;151;27396;-78
2022/09/12 12:26:38;;;;;;;2.87;2.67;;;30.20;41.60;;;;;;927482;150;27903;-79
2022/09/12 12:29:05;;;;;;;2.40;2.30;;;30.10;41.60;;;;;;924286;151;27342;-80
2022/09/12 12:31:31;;;;;;;2.12;2.02;;;30.00;41.80;;;;;;911135;153;27463;-80
2022/09/12 12:34:01;;;;;;;2.30;2.20;;;29.90;41.70;;;;;;923968;153;27471;-79
2022/09/12 12:36:37;;;;;;;2.30;2.10;;;29.90;41.60;;;;;;925161;153;27352;-79
2022/09/12 12:39:03;;;;;;;2.60;2.40;;;29.80;41.40;;;;;;923581;153;27289;-79
2022/09/12 12:41:35;;;;;;;2.65;2.45;;;29.80;41.60;;;;;;893990;153;27428;-79
2022/09/12 12:44:02;;;;;;;2.27;2.17;;;29.60;41.40;;;;;;925508;153;27435;-81
2022/09/12 12:46:28;;;;;;;2.87;2.30;;;29.50;41.30;;;;;;922844;150;27465;-79
2022/09/12 12:48:58;;;;;;;2.52;2.33;;;29.40;41.50;;;;;;927531;153;27439;-79
2022/09/12 12:51:43;;;;;;;2.27;2.10;;;29.40;41.60;;;;;;924429;150;27331;-79
2022/09/12 12:54:28;;;;;;;1.80;1.70;;;29.30;41.50;;;;;;924178;153;27412;-80
2022/09/12 12:57:12;;;;;;;2.77;1.92;;;29.20;41.50;;;;;;920659;153;27410;-81
2022/09/12 12:59:54;;;;;;;2.12;1.90;;;29.10;41.50;;;;;;908392;153;27486;-79